Terminal Aerodrome Forecast
Issued by NWS Wichita, KS

Home | Current Version | Previous Version | Graphics & Text | Print | Product List | Glossary On
Versions: 1 2 3 4 5 6 7 8 9 10 11 12 13 14
884
FTUS43 KICT 022326
TAFICT
TAF
KICT 022326Z 0300/0324 29021G29KT P6SM OVC035
     FM030400 31019G27KT P6SM OVC050
     FM031000 32017KT P6SM OVC040
     FM031500 33015G23KT P6SM SCT035 BKN120
     FM032200 33010KT P6SM SCT250=

USA.gov is the U.S. government's official web portal to all federal, state and local government web resources and services.